Time;durP1;ratioP1;P1;durP2;ratioP2;P2;SDS_P1;SDS_P2;PMS_P1;PMS_P2;Temp;Humidity;BMP_temperature;BMP_pressure;BME280_temperature;BME280_humidity;BME280_pressure;Samples;Min_cycle;Max_cycle;Signal;HPM_P1;HPM_P2
2023/02/12 00:01:54;;;;;;;;;;;;;;;0.37;75.25;98490.94;5036696;28;19921;-84
2023/02/12 00:04:21;;;;;;;;;;;;;;;0.36;75.90;98485.00;5005780;28;19928;-85
2023/02/12 00:06:52;;;;;;;;;;;;;;;0.38;75.21;98490.13;5042669;28;19920;-84
2023/02/12 00:09:19;;;;;;;;;;;;;;;0.38;75.26;98500.34;5058221;28;19936;-85
2023/02/12 00:11:46;;;;;;;;;;;;;;;0.39;76.00;98496.94;5060257;28;19924;-83
2023/02/12 00:14:19;;;;;;;;;;;;;;;0.42;75.63;98492.75;5062084;28;19976;-82
2023/02/12 00:17:11;;;;;;;;;;;;;;;0.48;75.51;98496.19;5043471;28;19948;-83
2023/02/12 00:19:47;;;;;;;;;;;;;;;0.52;75.60;98498.81;5076465;28;19925;-86
2023/02/12 00:22:16;;;;;;;;;;;;;;;0.58;76.10;98503.16;5045133;28;19968;-83
2023/02/12 00:24:45;;;;;;;;;;;;;;;0.19;75.25;98427.66;5061129;28;20099;-85
2023/02/12 00:27:11;;;;;;;;;;;;;;;0.74;75.38;98507.56;5058490;28;19987;-85
2023/02/12 00:29:43;;;;;;;;;;;;;;;0.76;76.00;98510.16;5060870;28;19973;-85
2023/02/12 00:32:10;;;;;;;;;;;;;;;0.81;75.95;98518.72;5058717;28;20351;-82
2023/02/12 00:34:54;;;;;;;;;;;;;;;0.87;75.08;98518.78;5056078;28;20019;-84
2023/02/12 00:37:20;;;;;;;;;;;;;;;0.89;75.58;98518.78;5073610;28;19928;-83
2023/02/12 00:39:46;;;;;;;;;;;;;;;0.90;75.27;98516.28;5056670;28;20322;-84
2023/02/12 00:42:12;;;;;;;;;;;;;;;0.92;75.64;98523.13;5042462;28;19921;-83
2023/02/12 00:44:42;;;;;;;;;;;;;;;0.87;75.32;98526.47;5055813;28;19920;-83
2023/02/12 00:47:09;;;;;;;;;;;;;;;0.85;74.67;98540.97;5058311;28;20380;-82
2023/02/12 00:49:39;;;;;;;;;;;;;;;0.53;75.15;98486.88;5057912;28;20006;-83
2023/02/12 00:52:06;;;;;;;;;;;;;;;0.84;74.84;98558.91;5057957;28;19928;-84
2023/02/12 00:54:32;;;;;;;;;;;;;;;0.82;74.74;98558.03;5055685;28;19931;-84
2023/02/12 00:56:58;;;;;;;;;;;;;;;0.82;74.91;98568.28;5074272;28;19921;-87
2023/02/12 00:59:48;;;;;;;;;;;;;;;0.79;74.36;98583.59;5038455;28;19921;-87
2023/02/12 01:02:18;;;;;;;;;;;;;;;0.74;74.93;98586.97;5055196;28;19921;-83
2023/02/12 01:04:45;;;;;;;;;;;;;;;0.69;75.05;98598.84;5074141;28;20288;-85
2023/02/12 01:07:12;;;;;;;;;;;;;;;0.66;75.32;98585.16;5056293;28;19928;-85
2023/02/12 01:09:42;;;;;;;;;;;;;;;0.60;74.43;98601.31;5074452;28;20395;-84
2023/02/12 01:12:10;;;;;;;;;;;;;;;0.56;75.11;98602.13;5067715;28;19921;-86
2023/02/12 01:14:40;;;;;;;;;;;;;;;0.54;75.08;98612.34;5038411;28;19921;-84
2023/02/12 01:17:08;;;;;;;;;;;;;;;0.54;74.77;98617.47;5048537;28;20001;-84
2023/02/12 01:19:34;;;;;;;;;;;;;;;0.44;74.14;98623.28;5059431;28;19943;-84
2023/02/12 01:22:03;;;;;;;;;;;;;;;0.41;74.95;98623.25;5060681;28;19920;-85
2023/02/12 01:24:38;;;;;;;;;;;;;;;0.39;75.31;98641.16;5060884;28;19928;-85
2023/02/12 01:27:04;;;;;;;;;;;;;;;0.36;74.59;98647.91;5026206;28;19952;-86
2023/02/12 01:29:35;;;;;;;;;;;;;;;0.35;75.21;98653.88;5050925;28;19940;-86
2023/02/12 01:32:07;;;;;;;;;;;;;;;0.35;75.42;98664.09;5035782;28;19947;-85
2023/02/12 01:34:39;;;;;;;;;;;;;;;0.28;74.44;98664.03;5038946;28;20338;-85
2023/02/12 01:37:11;;;;;;;;;;;;;;;0.24;75.43;98667.41;5056664;28;19921;-85
2023/02/12 01:39:55;;;;;;;;;;;;;;;0.22;74.72;98689.53;5048975;28;19920;-83
2023/02/12 01:42:24;;;;;;;;;;;;;;;0.24;74.81;98695.53;5067840;28;19920;-84
2023/02/12 01:45:29;;;;;;;;;;;;;;;0.23;74.51;98701.50;5084643;28;19928;-83
2023/02/12 01:47:59;;;;;;;;;;;;;;;0.20;75.49;98704.00;4993606;28;19949;-82
2023/02/12 01:50:25;;;;;;;;;;;;;;;0.15;74.75;98718.41;4972007;28;20388;-83
2023/02/12 01:52:56;;;;;;;;;;;;;;;0.10;74.95;98714.94;5026862;28;19989;-86
2023/02/12 01:55:22;;;;;;;;;;;;;;;0.06;74.75;98741.31;5081603;28;19929;-87
2023/02/12 01:57:48;;;;;;;;;;;;;;;0.06;75.14;98731.09;5093813;28;19928;-83
2023/02/12 02:00:22;;;;;;;;;;;;;;;0.02;74.41;98749.78;5075615;28;19920;-82
2023/02/12 02:03:00;;;;;;;;;;;;;;;0.00;75.01;98739.53;5077488;28;19943;-81
2023/02/12 02:05:52;;;;;;;;;;;;;;;0.07;75.27;98756.69;5075720;28;19925;-83
2023/02/12 02:08:21;;;;;;;;;;;;;;;0.08;74.63;98762.66;5076803;28;19913;-85
2023/02/12 02:10:48;;;;;;;;;;;;;;;0.11;75.19;98775.53;5087499;28;19980;-83
2023/02/12 02:16:25;;;;;;;;;;;;;;;0.12;74.40;98797.69;5062032;28;19927;-83
2023/02/12 02:18:58;;;;;;;;;;;;;;;0.05;74.35;98793.31;5049058;28;19921;-82
2023/02/12 02:21:36;;;;;;;;;;;;;;;0.04;74.51;98809.50;5066027;28;19987;-82
2023/02/12 02:24:15;;;;;;;;;;;;;;;-0.04;74.13;98823.00;5060468;28;19947;-82
2023/02/12 02:26:59;;;;;;;;;;;;;;;-0.07;75.04;98822.94;5059352;28;19932;-82
2023/02/12 02:29:37;;;;;;;;;;;;;;;-0.08;74.12;98835.72;5065061;28;19932;-83
2023/02/12 02:32:07;;;;;;;;;;;;;;;-0.07;74.67;98832.31;5058972;28;19928;-83
2023/02/12 02:34:52;;;;;;;;;;;;;;;-0.04;74.63;98842.63;5060513;28;19921;-83
2023/02/12 02:37:27;;;;;;;;;;;;;;;-0.06;74.60;98863.03;5059181;28;19974;-83
2023/02/12 02:40:10;;;;;;;;;;;;;;;-0.15;74.37;98857.75;5076741;28;19928;-82
2023/02/12 02:42:42;;;;;;;;;;;;;;;-0.21;73.97;98871.28;5076767;28;19971;-82
2023/02/12 02:45:17;;;;;;;;;;;;;;;-0.28;74.30;98871.13;5074632;28;19925;-80
2023/02/12 02:48:06;;;;;;;;;;;;;;;-0.34;74.64;98871.88;5076408;28;19920;-83
2023/02/12 02:50:34;;;;;;;;;;;;;;;-0.36;74.40;98882.06;5038803;28;19920;-82
2023/02/12 03:04:31;;;;;;;;;;;;;;;-0.28;74.48;98923.13;1183867;27;19932;-87
2023/02/12 03:08:11;;;;;;;;;;;;;;;;;;;;;
2023/02/12 03:20:15;;;;;;;;;;;;;;;-0.42;74.09;98948.41;4887504;29;19931;-90
2023/02/12 03:23:00;;;;;;;;;;;;;;;-0.39;74.26;98957.81;4869576;29;19931;-90
2023/02/12 03:25:39;;;;;;;;;;;;;;;-0.37;74.18;98980.06;4867493;29;20024;-82
2023/02/12 03:28:06;;;;;;;;;;;;;;;-0.35;73.74;98964.75;4850518;29;19928;-84
2023/02/12 03:30:48;;;;;;;;;;;;;;;-0.37;74.61;98990.28;4867721;29;20006;-83
2023/02/12 03:33:30;;;;;;;;;;;;;;;;;;;;;
2023/02/12 03:36:02;;;;;;;;;;;;;;;-0.39;74.33;99001.28;4888359;29;19924;-85
2023/02/12 03:38:46;;;;;;;;;;;;;;;-0.39;74.47;99007.28;4885666;29;19935;-83
2023/02/12 03:41:34;;;;;;;;;;;;;;;-0.42;73.54;99014.88;4871710;29;19923;-84
2023/02/12 03:44:14;;;;;;;;;;;;;;;-0.49;74.34;99010.44;4870554;29;19932;-84
2023/02/12 03:46:55;;;;;;;;;;;;;;;-0.51;73.96;99018.09;4855052;29;19995;-84
2023/02/12 03:49:36;;;;;;;;;;;;;;;-0.50;74.41;99014.72;4888397;29;20373;-85
2023/02/12 03:52:02;;;;;;;;;;;;;;;-0.51;74.54;99023.19;4886499;29;19931;-84
2023/02/12 03:54:40;;;;;;;;;;;;;;;-0.51;74.41;99025.75;4886310;29;19966;-84
2023/02/12 03:57:20;;;;;;;;;;;;;;;-0.52;73.83;99036.81;4893104;29;19908;-84
2023/02/12 03:59:47;;;;;;;;;;;;;;;-0.49;74.59;99051.34;4885106;29;19987;-85
2023/02/12 04:02:14;;;;;;;;;;;;;;;-0.46;74.50;99057.41;4885191;29;19960;-85
2023/02/12 04:04:45;;;;;;;;;;;;;;;-0.51;74.32;99058.09;4886656;29;20006;-82
2023/02/12 04:07:13;;;;;;;;;;;;;;;-0.54;74.12;99066.56;4886013;29;19936;-84
2023/02/12 04:09:48;;;;;;;;;;;;;;;-0.55;74.50;99077.63;4887864;29;19911;-83
2023/02/12 04:12:35;;;;;;;;;;;;;;;-0.58;73.95;99056.25;4901345;29;19928;-83
2023/02/12 04:15:07;;;;;;;;;;;;;;;-0.58;74.34;99071.59;4901128;29;19938;-83
2023/02/12 04:17:57;;;;;;;;;;;;;;;-0.62;74.16;99079.19;4897592;29;19943;-82
2023/02/12 04:20:45;;;;;;;;;;;;;;;-0.60;74.59;99074.09;4870490;29;19931;-85
2023/02/12 04:23:24;;;;;;;;;;;;;;;-0.62;74.60;99081.72;4871931;29;19987;-82
2023/02/12 04:25:49;;;;;;;;;;;;;;;-0.65;74.50;99096.97;4876786;29;20022;-83
2023/02/12 04:28:19;;;;;;;;;;;;;;;-0.66;73.49;99108.03;4873148;29;19928;-82
2023/02/12 04:30:45;;;;;;;;;;;;;;;-0.71;74.12;99101.94;4900617;29;19931;-83
2023/02/12 04:36:12;;;;;;;;;;;;;;;-0.66;74.30;99131.03;4888861;29;19927;-87
2023/02/12 04:38:58;;;;;;;;;;;;;;;-0.61;73.69;99138.81;4885940;29;19927;-84
2023/02/12 04:41:25;;;;;;;;;;;;;;;-0.66;73.73;99127.63;4856346;29;19923;-84
2023/02/12 04:43:51;;;;;;;;;;;;;;;-0.72;73.35;99142.78;4888715;29;19923;-84
2023/02/12 04:46:19;;;;;;;;;;;;;;;-0.75;74.47;99148.66;4883912;29;19923;-84
2023/02/12 04:49:15;;;;;;;;;;;;;;;-0.71;73.76;99160.72;4882532;29;19928;-87
2023/02/12 04:51:47;;;;;;;;;;;;;;;-0.71;74.10;99170.94;4865367;29;19923;-84
2023/02/12 04:54:14;;;;;;;;;;;;;;;-0.78;74.30;99172.47;4881842;29;20032;-83
2023/02/12 04:56:50;;;;;;;;;;;;;;;-0.88;73.33;99179.84;4867649;29;19924;-86
2023/02/12 04:59:22;;;;;;;;;;;;;;;-0.90;73.70;99192.59;4898327;29;19927;-83
2023/02/12 05:01:48;;;;;;;;;;;;;;;-0.88;73.49;99192.59;4885245;29;19927;-85
2023/02/12 05:04:14;;;;;;;;;;;;;;;-0.87;74.08;99195.19;4867431;29;19924;-86
2023/02/12 05:06:47;;;;;;;;;;;;;;;-0.92;73.68;99202.75;4884733;29;19959;-85
2023/02/12 05:09:20;;;;;;;;;;;;;;;-0.95;73.42;99210.31;4883254;29;19927;-83
2023/02/12 05:11:49;;;;;;;;;;;;;;;-1.00;73.73;99213.56;4884144;29;19924;-85
2023/02/12 05:14:17;;;;;;;;;;;;;;;-0.98;73.86;99222.16;4883062;29;19923;-85
2023/02/12 05:16:49;;;;;;;;;;;;;;;-0.98;73.71;99233.22;4868025;29;19939;-86
2023/02/12 05:19:16;;;;;;;;;;;;;;;-0.98;73.56;99234.91;4868719;29;19955;-88
2023/02/12 05:21:47;;;;;;;;;;;;;;;-1.01;73.90;99240.81;4864364;29;19924;-86
2023/02/12 05:28:39;;;;;;;;;;;;;;;-1.04;73.52;99260.28;4831587;29;19968;-86
2023/02/12 05:43:50;;;;;;;;;;;;;;;;;;;;;
2023/02/12 05:47:38;;;;;;;;;;;;;;;-0.99;73.59;99315.78;4824030;29;19983;-85
2023/02/12 05:50:42;;;;;;;;;;;;;;;-1.06;72.82;99324.09;4820086;29;19940;-80
2023/02/12 05:53:28;;;;;;;;;;;;;;;-1.04;73.04;99331.78;4830468;29;20102;-85
2023/02/12 05:56:07;;;;;;;;;;;;;;;-0.88;73.65;99331.41;4834471;29;19923;-84
2023/02/12 05:58:52;;;;;;;;;;;;;;;-0.77;73.58;99344.50;4889682;23;19932;-82
2023/02/12 06:01:31;;;;;;;;;;;;;;;-0.67;73.06;99345.69;4869862;29;19924;-83
2023/02/12 06:04:13;;;;;;;;;;;;;;;-0.68;73.26;99347.34;4880270;29;19983;-84
2023/02/12 06:06:41;;;;;;;;;;;;;;;-0.70;73.16;99359.22;4880754;29;19935;-84
2023/02/12 06:12:17;;;;;;;;;;;;;;;-0.73;73.31;99379.56;4869984;29;19974;-82
2023/02/12 06:18:12;;;;;;;;;;;;;;;-0.72;73.27;99375.34;4844813;29;20347;-85
2023/02/12 06:28:51;;;;;;;;;;;;;;;-0.70;72.99;99417.16;4852183;29;19932;-83
2023/02/12 06:31:32;;;;;;;;;;;;;;;-1.06;72.31;99378.59;4860177;29;19930;-80
2023/02/12 06:34:00;;;;;;;;;;;;;;;-0.63;72.94;99431.81;4851729;29;20035;-82
2023/02/12 06:37:00;;;;;;;;;;;;;;;-0.52;73.30;99429.59;4793942;29;19960;-82
2023/02/12 06:39:27;;;;;;;;;;;;;;;-0.42;72.62;99434.16;4889345;29;19927;-84
2023/02/12 06:41:56;;;;;;;;;;;;;;;-0.34;72.44;99452.28;4894720;29;19923;-82
2023/02/12 06:44:22;;;;;;;;;;;;;;;-0.37;72.96;99458.19;4897253;29;19949;-83
2023/02/12 06:47:22;;;;;;;;;;;;;;;-0.71;72.24;99403.47;4896809;29;20039;-83
2023/02/12 07:02:10;;;;;;;;;;;;;;;-0.37;72.04;99495.66;5766803;24;20145;-80
2023/02/12 07:04:39;;;;;;;;;;;;;;;-0.42;71.82;99487.88;4879033;29;19923;-82
2023/02/12 07:07:31;;;;;;;;;;;;;;;-0.48;72.32;99505.56;4895007;29;19931;-83
2023/02/12 07:10:03;;;;;;;;;;;;;;;-0.57;71.80;99515.53;4850159;29;19928;-83
2023/02/12 07:12:51;;;;;;;;;;;;;;;-0.67;72.25;99512.66;4890483;29;19947;-80
2023/02/12 07:15:17;;;;;;;;;;;;;;;-0.66;71.78;99518.66;4896370;29;19947;-81
2023/02/12 07:17:43;;;;;;;;;;;;;;;-0.59;72.67;99520.56;4880757;29;20014;-81
2023/02/12 07:20:12;;;;;;;;;;;;;;;-0.55;72.57;99519.84;4879787;29;20425;-81
2023/02/12 07:22:41;;;;;;;;;;;;;;;-0.50;71.95;99525.09;4895973;29;20501;-83
2023/02/12 07:25:46;;;;;;;;;;;;;;;-0.50;71.55;99541.31;4879756;29;20423;-81
2023/02/12 07:28:13;;;;;;;;;;;;;;;-0.55;71.15;99547.13;4881086;29;19967;-80
2023/02/12 07:30:39;;;;;;;;;;;;;;;-0.68;71.42;99541.59;4886481;29;20370;-81
2023/02/12 07:33:08;;;;;;;;;;;;;;;-0.70;71.72;99550.88;4907776;29;19975;-79
2023/02/12 07:36:05;;;;;;;;;;;;;;;-0.72;71.37;99542.31;4910379;29;19969;-82
2023/02/12 07:38:40;;;;;;;;;;;;;;;-0.70;72.25;99568.78;4894169;29;19930;-83
2023/02/12 07:41:11;;;;;;;;;;;;;;;-0.60;72.04;99572.50;4894892;29;19984;-83
2023/02/12 07:44:12;;;;;;;;;;;;;;;-0.43;71.92;99572.16;4882148;29;19930;-81
2023/02/12 07:46:48;;;;;;;;;;;;;;;-0.21;71.71;99586.50;4895492;29;19923;-80
2023/02/12 07:53:10;;;;;;;;;;;;;;;-0.11;70.78;99582.56;4899130;29;19979;-81
2023/02/12 07:55:37;;;;;;;;;;;;;;;0.03;71.42;99609.41;4902182;29;19930;-81
2023/02/12 07:58:09;;;;;;;;;;;;;;;0.11;71.24;99613.09;4903130;29;20039;-79
2023/02/12 08:00:40;;;;;;;;;;;;;;;0.52;70.36;99619.38;4901051;29;19923;-81
2023/02/12 08:03:06;;;;;;;;;;;;;;;0.92;70.26;99619.66;4885766;29;19965;-79
2023/02/12 08:05:32;;;;;;;;;;;;;;;0.98;69.66;99627.50;4898883;29;19923;-81
2023/02/12 08:08:04;;;;;;;;;;;;;;;1.16;69.29;99630.56;4901780;29;19934;-81
2023/02/12 08:10:30;;;;;;;;;;;;;;;1.17;69.33;99627.16;4865202;29;19951;-82
2023/02/12 08:12:56;;;;;;;;;;;;;;;1.23;69.33;99625.56;4894497;29;19928;-82
2023/02/12 08:15:33;;;;;;;;;;;;;;;1.15;68.89;99626.25;4879919;29;19923;-81
2023/02/12 08:18:02;;;;;;;;;;;;;;;1.02;69.23;99653.25;4863406;29;19996;-81
2023/02/12 08:20:32;;;;;;;;;;;;;;;1.00;69.18;99659.13;4875631;29;19927;-81
2023/02/12 08:22:58;;;;;;;;;;;;;;;0.96;69.13;99660.75;4894476;29;19927;-80
2023/02/12 08:25:24;;;;;;;;;;;;;;;1.01;69.74;99666.00;4858782;29;19987;-81
2023/02/12 08:27:53;;;;;;;;;;;;;;;0.90;69.44;99670.84;4882659;29;19924;-85
2023/02/12 08:30:22;;;;;;;;;;;;;;;0.85;69.28;99657.03;4871130;29;19930;-82
2023/02/12 08:32:52;;;;;;;;;;;;;;;0.67;69.27;99683.00;4875140;29;20414;-81
2023/02/12 08:35:27;;;;;;;;;;;;;;;0.64;69.71;99680.34;4882415;29;19920;-82
2023/02/12 08:37:53;;;;;;;;;;;;;;;0.67;69.49;99685.56;4873664;29;19931;-80
2023/02/12 08:40:19;;;;;;;;;;;;;;;0.80;69.33;99674.81;4881246;29;19923;-81
2023/02/12 08:42:45;;;;;;;;;;;;;;;0.93;68.14;99683.72;4869250;29;20423;-81
2023/02/12 08:45:11;;;;;;;;;;;;;;;0.98;68.87;99692.44;4894073;29;19930;-81
2023/02/12 08:47:36;;;;;;;;;;;;;;;1.02;68.41;99691.69;4889489;29;19923;-82
2023/02/12 08:50:02;;;;;;;;;;;;;;;0.93;68.77;99704.22;4861499;29;20002;-83
2023/02/12 08:52:29;;;;;;;;;;;;;;;0.80;68.90;99700.44;4893876;29;19930;-82
2023/02/12 08:54:55;;;;;;;;;;;;;;;0.84;69.18;99707.41;4890659;29;19947;-82
2023/02/12 08:57:20;;;;;;;;;;;;;;;0.79;68.29;99708.09;4877941;29;19934;-83
2023/02/12 08:59:49;;;;;;;;;;;;;;;0.67;68.28;99712.03;4896358;29;19923;-82
2023/02/12 09:02:15;;;;;;;;;;;;;;;0.69;69.00;99719.78;4895244;29;19947;-83
2023/02/12 09:04:44;;;;;;;;;;;;;;;0.63;68.21;99730.72;4895246;29;19931;-83
2023/02/12 09:07:13;;;;;;;;;;;;;;;0.64;68.22;99726.44;4878763;29;20510;-83
2023/02/12 09:09:45;;;;;;;;;;;;;;;0.66;68.12;99735.03;4856755;29;19927;-85
2023/02/12 09:12:11;;;;;;;;;;;;;;;0.64;67.59;99736.69;4891458;29;20390;-85
2023/02/12 09:14:37;;;;;;;;;;;;;;;0.71;67.83;99743.75;4892995;29;20407;-83
2023/02/12 09:17:04;;;;;;;;;;;;;;;0.88;67.86;99734.84;4895849;29;19951;-83
2023/02/12 09:19:33;;;;;;;;;;;;;;;1.35;66.72;99743.84;4878818;29;19923;-82
2023/02/12 09:21:58;;;;;;;;;;;;;;;1.20;67.20;99686.22;4892662;29;19946;-86
2023/02/12 09:24:26;;;;;;;;;;;;;;;1.54;67.11;99749.47;4862826;29;19935;-84
2023/02/12 09:27:15;;;;;;;;;;;;;;;1.44;67.15;99759.47;4869948;29;19930;-82
2023/02/12 09:29:41;;;;;;;;;;;;;;;1.33;66.79;99760.88;4886285;29;19928;-81
2023/02/12 09:32:09;;;;;;;;;;;;;;;1.15;65.94;99764.69;4886110;29;20418;-81
2023/02/12 09:34:35;;;;;;;;;;;;;;;1.12;66.74;99767.16;4886881;29;19923;-80
2023/02/12 09:37:06;;;;;;;;;;;;;;;1.09;67.02;99769.63;4885610;29;19923;-84
2023/02/12 09:39:32;;;;;;;;;;;;;;;0.94;66.68;99762.34;4886659;29;19935;-82
2023/02/12 09:42:07;;;;;;;;;;;;;;;0.89;66.22;99764.78;4886742;29;20026;-85
2023/02/12 09:44:48;;;;;;;;;;;;;;;0.81;66.81;99760.25;4903529;29;19923;-83
2023/02/12 09:50:53;;;;;;;;;;;;;;;0.85;66.23;99775.75;4823228;29;20418;-83
2023/02/12 09:53:24;;;;;;;;;;;;;;;0.87;66.46;99783.50;4842242;29;20372;-82
2023/02/12 09:55:56;;;;;;;;;;;;;;;0.86;67.02;99790.31;4840965;29;20019;-82
2023/02/12 09:58:30;;;;;;;;;;;;;;;0.85;65.79;99796.25;4841813;29;20007;-82
2023/02/12 10:00:59;;;;;;;;;;;;;;;1.02;66.25;99791.66;4839860;29;19924;-79
2023/02/12 10:03:30;;;;;;;;;;;;;;;1.29;66.40;99792.38;4841561;29;20018;-82
2023/02/12 10:06:02;;;;;;;;;;;;;;;1.37;65.33;99796.06;4826466;29;20112;-80
2023/02/12 10:09:07;;;;;;;;;;;;;;;1.58;66.23;99802.59;4820721;29;20034;-83
2023/02/12 10:11:42;;;;;;;;;;;;;;;1.45;65.22;99797.13;4838524;29;20377;-83
2023/02/12 10:14:08;;;;;;;;;;;;;;;1.49;65.89;99801.50;4842004;29;19988;-80
2023/02/12 10:16:37;;;;;;;;;;;;;;;2.30;65.89;99788.22;4865840;29;20434;-81
2023/02/12 10:19:06;;;;;;;;;;;;;;;2.22;64.42;99797.44;4857369;29;20328;-83
2023/02/12 10:21:35;;;;;;;;;;;;;;;1.91;63.36;99818.03;4873948;29;20312;-82
2023/02/12 10:24:24;;;;;;;;;;;;;;;1.65;64.38;99814.78;4874472;29;19923;-81
2023/02/12 10:27:02;;;;;;;;;;;;;;;1.49;64.91;99826.31;4877677;29;20493;-81
2023/02/12 10:29:41;;;;;;;;;;;;;;;;;;;;;
2023/02/12 10:32:34;;;;;;;;;;;;;;;1.85;64.60;99830.72;4892621;29;20022;-83
2023/02/12 10:38:39;;;;;;;;;;;;;;;1.76;63.78;99844.16;4895540;29;20035;-83
2023/02/12 10:41:05;;;;;;;;;;;;;;;1.53;64.42;99858.91;4856369;29;19939;-83
2023/02/12 10:43:33;;;;;;;;;;;;;;;1.42;64.01;99853.47;4896383;29;19927;-83
2023/02/12 10:46:17;;;;;;;;;;;;;;;1.37;63.92;99854.16;4874576;29;19930;-83
2023/02/12 10:48:59;;;;;;;;;;;;;;;1.21;63.68;99848.56;4886728;29;19928;-87
2023/02/12 10:51:43;;;;;;;;;;;;;;;1.02;63.51;99849.69;4895323;29;19987;-83
2023/02/12 10:54:52;;;;;;;;;;;;;;;0.68;63.42;99854.63;4852140;29;20375;-88
2023/02/12 11:01:02;;;;;;;;;;;;;;;0.52;63.19;99875.47;4974772;23;19931;-83
2023/02/12 11:07:56;;;;;;;;;;;;;;;0.66;63.24;99870.78;4862693;29;19934;-83
2023/02/12 11:11:30;;;;;;;;;;;;;;;;;;;;;
2023/02/12 11:14:54;;;;;;;;;;;;;;;0.49;63.77;99891.59;4824263;29;20035;-80
2023/02/12 11:17:37;;;;;;;;;;;;;;;0.46;63.30;99881.25;4841697;29;19924;-82
2023/02/12 11:28:19;;;;;;;;;;;;;;;0.23;63.00;99906.94;4871481;29;19983;-81
2023/02/12 11:30:54;;;;;;;;;;;;;;;0.17;62.72;99908.44;4894429;29;19923;-80
2023/02/12 11:33:22;;;;;;;;;;;;;;;0.19;63.81;99917.03;4866210;29;19928;-84
2023/02/12 11:36:06;;;;;;;;;;;;;;;;;;;;;
2023/02/12 11:38:48;;;;;;;;;;;;;;;0.36;63.37;99915.94;4867228;29;19923;-81
2023/02/12 11:41:23;;;;;;;;;;;;;;;0.48;63.41;99923.16;4893437;29;19941;-82
2023/02/12 11:44:19;;;;;;;;;;;;;;;0.53;63.12;99923.31;4878435;29;19963;-82
2023/02/12 11:47:23;;;;;;;;;;;;;;;0.51;63.02;99933.50;4866649;29;20020;-82
2023/02/12 11:50:18;;;;;;;;;;;;;;;0.37;62.05;99929.59;4866050;29;19928;-81
2023/02/12 11:52:51;;;;;;;;;;;;;;;0.23;62.78;99942.78;4876697;29;20086;-82
2023/02/12 11:55:46;;;;;;;;;;;;;;;0.28;62.67;99948.94;4888925;29;19924;-81
2023/02/12 11:58:31;;;;;;;;;;;;;;;0.29;62.32;99955.81;4893625;29;20311;-82
2023/02/12 12:01:22;;;;;;;;;;;;;;;0.17;62.78;99962.19;4894174;29;19931;-85
2023/02/12 12:04:21;;;;;;;;;;;;;;;0.01;62.40;99964.16;4889418;29;20300;-80
2023/02/12 12:07:16;;;;;;;;;;;;;;;-0.09;63.55;99962.09;4879828;29;19950;-84
2023/02/12 12:10:04;;;;;;;;;;;;;;;-0.17;63.08;99970.34;4893745;29;19975;-82
2023/02/12 12:13:16;;;;;;;;;;;;;;;-0.24;63.14;99982.88;4828129;29;19931;-80
2023/02/12 12:22:18;;;;;;;;;;;;;;;-0.43;62.83;100002.63;4774753;30;19980;-81
2023/02/12 12:25:06;;;;;;;;;;;;;;;-0.41;63.07;100010.34;4849233;29;19967;-81
2023/02/12 12:30:45;;;;;;;;;;;;;;;-0.52;63.41;100008.25;4885799;29;20045;-82
2023/02/12 12:33:23;;;;;;;;;;;;;;;-0.48;63.07;100024.56;4900213;29;19930;-83
2023/02/12 12:36:11;;;;;;;;;;;;;;;-0.45;63.58;100024.69;4895660;29;20451;-84
2023/02/12 12:42:56;;;;;;;;;;;;;;;-0.45;63.38;100040.03;4861810;29;19923;-83
2023/02/12 12:45:29;;;;;;;;;;;;;;;-0.46;62.91;100049.41;4846933;29;19923;-82
2023/02/12 12:48:16;;;;;;;;;;;;;;;-0.44;63.32;100040.94;4892372;29;19932;-81
2023/02/12 12:51:10;;;;;;;;;;;;;;;-0.53;63.04;100052.53;4898936;29;20369;-84
2023/02/12 12:54:13;;;;;;;;;;;;;;;-0.81;63.24;100017.31;4896288;29;19943;-80
2023/02/12 12:56:46;;;;;;;;;;;;;;;-0.67;63.08;100056.22;4886935;29;19979;-82
2023/02/12 12:59:36;;;;;;;;;;;;;;;-0.70;62.76;100066.31;4908712;29;20045;-79
2023/02/12 13:02:14;;;;;;;;;;;;;;;-0.73;63.76;100072.16;4888141;29;19957;-79
2023/02/12 13:05:02;;;;;;;;;;;;;;;-0.72;63.47;100071.34;4890538;29;19955;-82
2023/02/12 13:07:54;;;;;;;;;;;;;;;-0.62;63.42;100070.03;4910308;29;19923;-81
2023/02/12 13:11:09;;;;;;;;;;;;;;;-0.61;63.23;100085.47;4824827;29;19929;-81
2023/02/12 13:13:45;;;;;;;;;;;;;;;-0.72;62.68;100090.94;4915428;29;19938;-86
2023/02/12 13:23:51;;;;;;;;;;;;;;;-0.70;63.32;100102.09;4838631;29;20197;-82
2023/02/12 13:41:00;;;;;;;;;;;;;;;-0.85;62.40;100135.56;4784438;29;19925;-80
2023/02/12 13:43:41;;;;;;;;;;;;;;;-0.85;63.20;100148.31;4880852;29;19924;-83
2023/02/12 13:46:42;;;;;;;;;;;;;;;-0.76;63.03;100143.59;4849194;29;19927;-82
2023/02/12 13:52:38;;;;;;;;;;;;;;;-0.99;62.82;100147.72;4873778;29;19923;-81
2023/02/12 13:55:35;;;;;;;;;;;;;;;-1.19;63.02;100139.19;4855242;29;19979;-84
2023/02/12 13:58:20;;;;;;;;;;;;;;;-1.32;63.37;100150.56;4877886;29;19950;-83
2023/02/12 14:01:37;;;;;;;;;;;;;;;-1.43;63.79;100161.16;4876034;29;19932;-83
2023/02/12 14:04:46;;;;;;;;;;;;;;;-1.66;63.63;100162.66;4868715;29;20423;-82
2023/02/12 14:07:54;;;;;;;;;;;;;;;-1.79;63.45;100166.31;4876506;29;19923;-81
2023/02/12 14:10:25;;;;;;;;;;;;;;;-1.84;63.74;100168.63;4839468;29;20012;-82
2023/02/12 14:13:11;;;;;;;;;;;;;;;-1.88;63.49;100166.75;4864723;29;19924;-84
2023/02/12 14:16:27;;;;;;;;;;;;;;;-1.89;64.15;100182.88;4861770;29;19924;-83
2023/02/12 14:19:14;;;;;;;;;;;;;;;-1.93;64.20;100177.53;4864084;29;19991;-83
2023/02/12 14:22:15;;;;;;;;;;;;;;;-2.02;64.07;100185.63;4847593;29;19931;-83
2023/02/12 14:24:48;;;;;;;;;;;;;;;-2.05;64.12;100190.56;4858134;29;19930;-80
2023/02/12 14:27:35;;;;;;;;;;;;;;;-2.18;64.08;100191.66;4830195;29;20535;-82
2023/02/12 14:30:13;;;;;;;;;;;;;;;-2.25;63.84;100198.13;4872242;29;19959;-84
2023/02/12 14:33:11;;;;;;;;;;;;;;;-2.35;63.71;100213.78;4865981;29;19971;-84
2023/02/12 14:39:21;;;;;;;;;;;;;;;-2.50;63.96;100208.78;4875446;29;19958;-85
2023/02/12 14:42:09;;;;;;;;;;;;;;;-2.57;64.07;100217.81;4848391;29;20353;-84
2023/02/12 14:44:59;;;;;;;;;;;;;;;-2.60;64.23;100226.16;4865079;29;20271;-86
2023/02/12 14:47:48;;;;;;;;;;;;;;;-2.70;64.62;100223.06;4866363;29;19931;-86
2023/02/12 14:50:51;;;;;;;;;;;;;;;-2.77;64.41;100230.41;4869392;29;20054;-83
2023/02/12 14:53:32;;;;;;;;;;;;;;;-2.84;64.71;100242.72;4874490;29;19928;-85
2023/02/12 14:56:02;;;;;;;;;;;;;;;-2.90;64.46;100240.72;4838115;29;19927;-84
2023/02/12 14:58:53;;;;;;;;;;;;;;;-2.98;64.44;100237.78;4885363;29;19923;-86
2023/02/12 15:01:37;;;;;;;;;;;;;;;-2.98;64.67;100252.22;4868167;29;19991;-85
2023/02/12 15:04:11;;;;;;;;;;;;;;;-2.98;64.73;100255.63;4886162;29;20030;-86
2023/02/12 15:06:44;;;;;;;;;;;;;;;-2.96;64.76;100254.03;4884804;29;19930;-86
2023/02/12 15:09:19;;;;;;;;;;;;;;;-3.02;64.47;100263.88;4884953;29;19927;-87
2023/02/12 15:12:07;;;;;;;;;;;;;;;-3.07;64.51;100263.66;4898661;29;19924;-86
2023/02/12 15:19:12;;;;;;;;;;;;;;;;;;;;;
2023/02/12 15:21:46;;;;;;;;;;;;;;;-3.12;64.70;100287.97;4850878;29;19961;-84
2023/02/12 15:24:32;;;;;;;;;;;;;;;-3.12;64.89;100292.22;4809301;29;20003;-86
2023/02/12 15:27:36;;;;;;;;;;;;;;;-3.09;65.56;100307.66;4848731;29;20055;-83
2023/02/12 15:30:02;;;;;;;;;;;;;;;-3.06;64.84;100312.88;4903813;29;20019;-86
2023/02/12 15:33:15;;;;;;;;;;;;;;;-3.15;64.76;100315.81;4880487;29;20400;-85
2023/02/12 15:36:25;;;;;;;;;;;;;;;-3.13;65.11;100318.47;4872840;29;19923;-82
2023/02/12 15:39:03;;;;;;;;;;;;;;;-3.15;65.10;100320.03;4879763;29;19983;-82
2023/02/12 15:41:46;;;;;;;;;;;;;;;-3.18;64.86;100320.75;4878820;29;20017;-82
2023/02/12 15:44:36;;;;;;;;;;;;;;;-3.21;64.96;100321.47;4893885;29;19968;-84
2023/02/12 15:47:25;;;;;;;;;;;;;;;-3.19;65.20;100321.53;4893824;29;19923;-84
2023/02/12 15:50:00;;;;;;;;;;;;;;;-3.22;64.71;100329.88;4873166;29;19947;-83
2023/02/12 15:52:33;;;;;;;;;;;;;;;-3.23;64.87;100320.50;4896315;29;19928;-82
2023/02/12 15:55:04;;;;;;;;;;;;;;;-3.24;65.06;100328.91;4889334;29;19962;-83
2023/02/12 15:57:37;;;;;;;;;;;;;;;-3.25;64.97;100331.41;4903547;29;19928;-84
2023/02/12 16:00:21;;;;;;;;;;;;;;;-3.25;64.91;100334.81;4865281;29;19924;-82
2023/02/12 16:02:50;;;;;;;;;;;;;;;-3.28;64.71;100338.84;4881401;29;20030;-81
2023/02/12 16:05:16;;;;;;;;;;;;;;;-3.25;65.15;100341.59;4882754;29;20363;-82
2023/02/12 16:07:43;;;;;;;;;;;;;;;-3.23;65.25;100340.00;4887070;29;19936;-82
2023/02/12 16:10:16;;;;;;;;;;;;;;;-3.26;65.24;100342.38;4885251;29;19928;-82
2023/02/12 16:12:46;;;;;;;;;;;;;;;-3.40;64.69;100341.59;4866793;29;19924;-83
2023/02/12 16:15:26;;;;;;;;;;;;;;;-3.37;65.69;100341.78;4896418;29;19923;-82
2023/02/12 16:17:52;;;;;;;;;;;;;;;-3.36;65.43;100344.38;4878663;29;19923;-85